Time;durP1;ratioP1;P1;durP2;ratioP2;P2;SDS_P1;SDS_P2;PMS_P1;PMS_P2;Temp;Humidity;BMP_temperature;BMP_pressure;BME280_temperature;BME280_humidity;BME280_pressure;Samples;Min_cycle;Max_cycle;Signal;HPM_P1;HPM_P2
2024/01/14 00:01:21;;;;;;;1.23;0.93;;;5.00;99.90;;;;;;5022018;28;20439;-73
2024/01/14 00:03:46;;;;;;;3.10;1.02;;;5.10;99.90;;;;;;5025405;28;20041;-72
2024/01/14 00:06:12;;;;;;;1.25;0.70;;;5.10;99.90;;;;;;5024187;28;20732;-73
2024/01/14 00:08:37;;;;;;;1.35;1.23;;;5.00;99.90;;;;;;5025785;28;20050;-73
2024/01/14 00:11:04;;;;;;;1.73;0.85;;;5.10;99.90;;;;;;5007037;28;20042;-73
2024/01/14 00:13:29;;;;;;;1.92;0.98;;;5.00;99.90;;;;;;5025265;28;20666;-73
2024/01/14 00:15:55;;;;;;;9.45;1.52;;;5.00;99.90;;;;;;5024736;28;20034;-73
2024/01/14 00:18:20;;;;;;;2.88;1.42;;;5.00;99.90;;;;;;5007390;28;20571;-73
2024/01/14 00:20:46;;;;;;;4.25;1.75;;;5.00;99.90;;;;;;5025013;28;20042;-73
2024/01/14 00:23:11;;;;;;;3.97;1.38;;;5.00;99.90;;;;;;5024509;28;20049;-73
2024/01/14 00:25:37;;;;;;;0.60;0.55;;;5.00;99.90;;;;;;5024823;28;20052;-73
2024/01/14 00:28:03;;;;;;;0.45;0.45;;;5.00;99.90;;;;;;5024630;28;20061;-74
2024/01/14 00:30:29;;;;;;;3.33;1.65;;;5.00;99.90;;;;;;5017538;28;20037;-73
2024/01/14 00:32:54;;;;;;;4.15;1.40;;;5.00;99.90;;;;;;5024290;28;20034;-73
2024/01/14 00:35:20;;;;;;;1.98;0.75;;;5.00;99.90;;;;;;5024804;28;20598;-74
2024/01/14 00:37:47;;;;;;;2.83;0.55;;;5.00;99.90;;;;;;5024619;28;20047;-73
2024/01/14 00:40:13;;;;;;;1.35;0.45;;;5.00;99.90;;;;;;5024275;28;20366;-73
2024/01/14 00:42:39;;;;;;;2.03;0.65;;;5.00;99.90;;;;;;5024357;28;20053;-74
2024/01/14 00:45:05;;;;;;;0.70;0.60;;;5.00;99.90;;;;;;5023927;28;20125;-73
2024/01/14 00:47:30;;;;;;;2.65;1.08;;;5.00;99.90;;;;;;5024881;28;20040;-73
2024/01/14 00:49:57;;;;;;;2.13;0.80;;;4.90;99.90;;;;;;5024450;28;20071;-73
2024/01/14 00:52:23;;;;;;;1.75;0.70;;;4.90;99.90;;;;;;5023097;28;20061;-73
2024/01/14 00:54:48;;;;;;;0.90;0.85;;;4.80;99.90;;;;;;5025153;28;20396;-73
2024/01/14 00:57:14;;;;;;;2.05;1.15;;;4.90;99.90;;;;;;5024030;28;20085;-73
2024/01/14 00:59:40;;;;;;;3.80;0.73;;;4.80;99.90;;;;;;5020902;28;20052;-73
2024/01/14 01:02:06;;;;;;;1.10;0.90;;;4.80;99.90;;;;;;5017145;28;20084;-73
2024/01/14 01:04:31;;;;;;;6.15;0.85;;;4.90;99.90;;;;;;5023658;28;20554;-73
2024/01/14 01:06:57;;;;;;;1.27;0.63;;;4.90;99.90;;;;;;5023116;28;20041;-73
2024/01/14 01:09:22;;;;;;;1.30;0.77;;;4.90;99.90;;;;;;5006591;28;20049;-73
2024/01/14 01:11:48;;;;;;;2.30;0.93;;;4.90;99.90;;;;;;5023574;28;20042;-73
2024/01/14 01:14:15;;;;;;;2.85;1.17;;;4.90;99.90;;;;;;5023324;28;20041;-74
2024/01/14 01:16:40;;;;;;;4.18;1.40;;;4.90;99.90;;;;;;5024140;28;20065;-73
2024/01/14 01:19:06;;;;;;;1.55;0.90;;;4.80;99.90;;;;;;5023769;28;20397;-73
2024/01/14 01:21:32;;;;;;;4.40;1.27;;;4.80;99.90;;;;;;5022556;28;20468;-74
2024/01/14 01:23:58;;;;;;;2.78;0.75;;;4.80;99.90;;;;;;5023674;28;20072;-73
2024/01/14 01:26:24;;;;;;;1.92;1.63;;;4.80;99.90;;;;;;5006058;28;20124;-74
2024/01/14 01:28:49;;;;;;;2.47;1.52;;;4.70;99.90;;;;;;5024039;28;20084;-73
2024/01/14 01:31:15;;;;;;;1.05;0.80;;;4.70;99.90;;;;;;5023877;28;20469;-73
2024/01/14 01:33:41;;;;;;;2.97;0.98;;;4.70;99.90;;;;;;5006328;28;20507;-73
2024/01/14 01:36:07;;;;;;;1.27;0.77;;;4.60;99.90;;;;;;5022702;28;20037;-74
2024/01/14 01:38:33;;;;;;;2.35;1.67;;;4.60;99.90;;;;;;5023508;28;20096;-75
2024/01/14 01:40:58;;;;;;;2.50;1.80;;;4.60;99.90;;;;;;5023220;28;20687;-74
2024/01/14 01:43:24;;;;;;;2.70;1.15;;;4.60;99.90;;;;;;5023611;28;20043;-74
2024/01/14 01:45:51;;;;;;;7.43;1.08;;;4.60;99.90;;;;;;5001965;28;20077;-74
2024/01/14 01:48:19;;;;;;;4.63;1.10;;;4.60;99.90;;;;;;5023955;28;20584;-74
2024/01/14 01:50:45;;;;;;;2.80;0.93;;;4.50;99.90;;;;;;5015647;28;20038;-75
2024/01/14 01:53:11;;;;;;;3.10;1.58;;;4.50;99.90;;;;;;5015533;28;20042;-75
2024/01/14 01:55:37;;;;;;;8.23;2.00;;;4.60;99.90;;;;;;5022797;28;20048;-75
2024/01/14 01:58:02;;;;;;;3.85;1.23;;;4.50;99.90;;;;;;4985738;28;20503;-75
2024/01/14 02:00:29;;;;;;;5.88;1.73;;;4.50;99.90;;;;;;5013322;28;20037;-75
2024/01/14 02:02:55;;;;;;;1.88;1.13;;;4.50;99.90;;;;;;5022615;28;20085;-75
2024/01/14 02:05:21;;;;;;;2.53;1.17;;;4.50;99.90;;;;;;5004274;28;20045;-75
2024/01/14 02:07:47;;;;;;;6.13;2.47;;;4.50;99.90;;;;;;5022998;28;20050;-74
2024/01/14 02:10:13;;;;;;;3.90;1.33;;;4.50;99.90;;;;;;5019785;28;20076;-74
2024/01/14 02:12:38;;;;;;;4.80;0.88;;;4.40;99.90;;;;;;4991834;28;20116;-74
2024/01/14 02:15:05;;;;;;;0.88;0.57;;;4.40;99.90;;;;;;5002692;28;20068;-74
2024/01/14 02:17:30;;;;;;;3.65;0.75;;;4.40;99.90;;;;;;4985295;28;20049;-74
2024/01/14 02:19:56;;;;;;;3.15;1.00;;;4.40;99.90;;;;;;4985052;28;20073;-74
2024/01/14 02:22:29;;;;;;;0.93;0.75;;;4.40;99.90;;;;;;5002236;28;20046;-74
2024/01/14 02:24:55;;;;;;;3.80;2.22;;;4.30;99.90;;;;;;4983773;28;20100;-74
2024/01/14 02:27:22;;;;;;;3.40;1.58;;;4.30;99.90;;;;;;4998490;28;20538;-74
2024/01/14 02:29:48;;;;;;;0.63;0.63;;;4.30;99.90;;;;;;5005749;28;20041;-74
2024/01/14 02:32:14;;;;;;;5.95;1.70;;;4.20;99.90;;;;;;5021991;28;20124;-75
2024/01/14 02:34:39;;;;;;;3.35;1.48;;;4.30;99.90;;;;;;5005114;28;20128;-75
2024/01/14 02:37:05;;;;;;;1.40;1.30;;;4.20;99.90;;;;;;5003042;28;20072;-75
2024/01/14 02:39:30;;;;;;;2.30;1.50;;;4.30;99.90;;;;;;5022286;28;20416;-75
2024/01/14 02:41:56;;;;;;;5.13;1.15;;;4.30;99.90;;;;;;5021302;28;20037;-75
2024/01/14 02:44:22;;;;;;;1.20;1.05;;;4.20;99.90;;;;;;5004442;28;20056;-75
2024/01/14 02:46:47;;;;;;;8.88;2.60;;;4.20;99.90;;;;;;5021832;28;20107;-74
2024/01/14 02:49:13;;;;;;;4.90;1.20;;;4.20;99.90;;;;;;5022055;28;20052;-75
2024/01/14 02:51:38;;;;;;;2.53;1.38;;;4.30;99.90;;;;;;5020957;28;20083;-75
2024/01/14 02:54:04;;;;;;;5.50;1.45;;;4.30;99.90;;;;;;5017760;28;20037;-74
2024/01/14 02:56:29;;;;;;;2.83;1.02;;;4.20;99.90;;;;;;5014717;28;20103;-74
2024/01/14 02:58:56;;;;;;;9.82;1.35;;;4.20;99.90;;;;;;5006177;28;20107;-74
2024/01/14 03:01:21;;;;;;;9.30;1.58;;;4.20;99.90;;;;;;5001762;28;20750;-74
2024/01/14 03:03:47;;;;;;;5.93;1.00;;;4.20;99.90;;;;;;5003808;28;20037;-74
2024/01/14 03:06:13;;;;;;;3.45;1.52;;;4.30;99.90;;;;;;4986363;28;20041;-74
2024/01/14 03:08:39;;;;;;;2.83;1.02;;;4.30;99.90;;;;;;5003976;28;20054;-75
2024/01/14 03:11:05;;;;;;;5.47;0.65;;;4.20;99.90;;;;;;5003276;28;20046;-74
2024/01/14 03:13:30;;;;;;;7.13;1.20;;;4.30;99.90;;;;;;4997205;28;20819;-74
2024/01/14 03:15:56;;;;;;;3.05;1.52;;;4.30;99.90;;;;;;5021793;28;20095;-75
2024/01/14 03:18:21;;;;;;;2.13;1.40;;;4.30;99.90;;;;;;5004284;28;20053;-74
2024/01/14 03:20:47;;;;;;;1.38;0.68;;;4.30;99.90;;;;;;5004111;28;20054;-74
2024/01/14 03:23:13;;;;;;;2.58;0.63;;;4.30;99.90;;;;;;5003500;28;20057;-74
2024/01/14 03:25:38;;;;;;;1.45;0.63;;;4.40;99.90;;;;;;5004083;28;20077;-74
2024/01/14 03:28:04;;;;;;;5.13;1.30;;;4.40;99.90;;;;;;5004017;28;20491;-74
2024/01/14 03:30:30;;;;;;;2.20;1.95;;;4.40;99.90;;;;;;5021476;28;20046;-74
2024/01/14 03:32:55;;;;;;;4.63;1.40;;;4.40;99.90;;;;;;5003887;28;20033;-74
2024/01/14 03:35:21;;;;;;;3.13;1.40;;;4.40;99.90;;;;;;5020660;28;20057;-74
2024/01/14 03:37:46;;;;;;;2.65;0.88;;;4.40;99.90;;;;;;4999229;28;20041;-74
2024/01/14 03:40:12;;;;;;;3.00;1.20;;;4.40;99.90;;;;;;4983999;28;20538;-74
2024/01/14 03:42:38;;;;;;;2.35;1.10;;;4.40;99.90;;;;;;5017809;28;20042;-74
2024/01/14 03:45:04;;;;;;;1.05;0.47;;;4.40;99.90;;;;;;5021137;28;20455;-74
2024/01/14 03:47:30;;;;;;;3.45;1.70;;;4.40;99.90;;;;;;5021187;28;20037;-74
2024/01/14 03:49:56;;;;;;;2.15;0.82;;;4.40;99.90;;;;;;5003468;28;20129;-74
2024/01/14 03:52:21;;;;;;;4.78;1.02;;;4.40;99.90;;;;;;5003112;28;20053;-74
2024/01/14 03:54:47;;;;;;;12.27;3.10;;;4.40;99.90;;;;;;5021710;28;20497;-74
2024/01/14 03:57:12;;;;;;;2.28;1.40;;;4.40;99.90;;;;;;5002978;28;20046;-74
2024/01/14 03:59:38;;;;;;;3.50;1.48;;;4.40;99.90;;;;;;5021893;28;20044;-74
2024/01/14 04:02:04;;;;;;;12.90;2.17;;;4.30;99.90;;;;;;5003787;28;20602;-74
2024/01/14 04:04:30;;;;;;;6.00;2.28;;;4.30;99.90;;;;;;5021651;28;20052;-74
2024/01/14 04:06:55;;;;;;;1.55;0.70;;;4.30;99.90;;;;;;5020226;28;20415;-74
2024/01/14 04:09:21;;;;;;;3.13;1.55;;;4.30;99.90;;;;;;5036559;28;20073;-74
2024/01/14 04:11:47;;;;;;;1.38;0.90;;;4.20;99.90;;;;;;5022057;28;20041;-74
2024/01/14 04:14:12;;;;;;;2.17;1.95;;;4.20;99.90;;;;;;5020985;28;20042;-74
2024/01/14 04:16:39;;;;;;;2.20;0.88;;;4.20;99.90;;;;;;5021037;28;20132;-74
2024/01/14 04:19:06;;;;;;;1.45;1.20;;;4.10;99.90;;;;;;5003588;28;20456;-74
2024/01/14 04:21:31;;;;;;;6.88;2.28;;;4.10;99.90;;;;;;5020377;28;20084;-74
2024/01/14 04:24:02;;;;;;;2.72;1.08;;;4.10;99.90;;;;;;5003216;28;20084;-74
2024/01/14 04:26:28;;;;;;;4.18;1.33;;;4.10;99.90;;;;;;5021569;28;20407;-74
2024/01/14 04:28:54;;;;;;;8.73;1.75;;;4.00;99.90;;;;;;5003563;28;20046;-74
2024/01/14 04:31:20;;;;;;;4.85;2.08;;;4.00;99.90;;;;;;5021393;28;20042;-74
2024/01/14 04:33:46;;;;;;;1.77;1.50;;;4.00;99.90;;;;;;5021983;28;20129;-74
2024/01/14 04:36:12;;;;;;;4.03;0.70;;;4.00;99.90;;;;;;5019417;28;20099;-74
2024/01/14 04:38:37;;;;;;;2.22;0.93;;;4.00;99.90;;;;;;5021537;28;20056;-74
2024/01/14 04:41:03;;;;;;;1.27;1.08;;;4.00;99.90;;;;;;5003381;28;20038;-74
2024/01/14 04:43:28;;;;;;;2.05;1.35;;;4.00;99.90;;;;;;5020952;28;20048;-74
2024/01/14 04:45:54;;;;;;;1.65;1.08;;;4.00;99.90;;;;;;5002870;28;20050;-74
2024/01/14 04:48:20;;;;;;;3.08;0.73;;;4.00;99.90;;;;;;5004417;28;20048;-74
2024/01/14 04:50:45;;;;;;;5.70;1.83;;;4.00;99.90;;;;;;5024104;28;20092;-74
2024/01/14 04:53:14;;;;;;;2.53;0.88;;;4.00;99.90;;;;;;5006528;28;20425;-74
2024/01/14 04:55:39;;;;;;;2.63;1.85;;;4.00;99.90;;;;;;5006644;28;20100;-74
2024/01/14 04:58:05;;;;;;;3.80;1.92;;;4.00;99.90;;;;;;5006607;28;20077;-74
2024/01/14 05:00:30;;;;;;;2.85;2.03;;;4.00;99.90;;;;;;5024353;28;20041;-74
2024/01/14 05:02:56;;;;;;;2.10;0.82;;;4.00;99.90;;;;;;5024164;28;20045;-74
2024/01/14 05:05:22;;;;;;;6.35;1.55;;;4.10;99.90;;;;;;5005248;28;20121;-75
2024/01/14 05:07:47;;;;;;;3.42;1.10;;;4.00;99.90;;;;;;5039956;28;20053;-74
2024/01/14 05:10:13;;;;;;;5.03;0.90;;;4.00;99.90;;;;;;5005907;28;20081;-74
2024/01/14 05:12:39;;;;;;;1.30;1.20;;;4.10;99.90;;;;;;5024359;28;20567;-74
2024/01/14 05:15:05;;;;;;;8.10;2.38;;;4.00;99.90;;;;;;5005852;28;20522;-74
2024/01/14 05:17:30;;;;;;;0.55;0.52;;;4.00;99.90;;;;;;5024628;28;20123;-74
2024/01/14 05:19:56;;;;;;;2.67;1.20;;;4.00;99.90;;;;;;5000908;28;20502;-74
2024/01/14 05:22:22;;;;;;;3.55;1.00;;;4.00;99.90;;;;;;4990988;28;20042;-74
2024/01/14 05:24:50;;;;;;;2.25;1.50;;;4.00;99.90;;;;;;4988970;28;20050;-74
2024/01/14 05:27:16;;;;;;;1.33;1.20;;;3.90;99.90;;;;;;5006568;28;20080;-74
2024/01/14 05:29:45;;;;;;;2.75;1.33;;;3.90;99.90;;;;;;5023985;28;20060;-74
2024/01/14 05:32:13;;;;;;;10.32;2.45;;;3.90;99.90;;;;;;5023736;28;20052;-74
2024/01/14 05:34:39;;;;;;;4.03;2.10;;;3.90;99.90;;;;;;5023438;28;20480;-74
2024/01/14 05:37:05;;;;;;;2.97;1.23;;;3.90;99.90;;;;;;5005032;28;20096;-74
2024/01/14 05:39:32;;;;;;;3.90;1.35;;;3.80;99.90;;;;;;5023932;28;20514;-74
2024/01/14 05:41:58;;;;;;;0.90;0.70;;;3.80;99.90;;;;;;5005585;28;20049;-74
2024/01/14 05:44:24;;;;;;;1.65;1.38;;;3.80;99.90;;;;;;5023665;28;20049;-74
2024/01/14 05:46:49;;;;;;;2.75;1.90;;;3.80;99.90;;;;;;5023465;28;20404;-74
2024/01/14 05:49:15;;;;;;;5.38;2.35;;;3.80;99.90;;;;;;5023588;28;20033;-74
2024/01/14 05:51:40;;;;;;;2.08;1.25;;;3.80;99.90;;;;;;4988496;28;20060;-74
2024/01/14 05:54:06;;;;;;;6.13;1.98;;;3.80;99.90;;;;;;5011843;28;20041;-74
2024/01/14 05:56:31;;;;;;;3.22;1.33;;;3.80;99.90;;;;;;5005938;28;20041;-74
2024/01/14 05:58:57;;;;;;;4.82;2.10;;;3.80;99.90;;;;;;4992854;28;20089;-74
2024/01/14 06:01:22;;;;;;;1.55;1.10;;;3.80;99.90;;;;;;5020440;28;20455;-74
2024/01/14 06:03:48;;;;;;;0.88;0.70;;;3.90;99.90;;;;;;5023376;28;20037;-74
2024/01/14 06:06:14;;;;;;;3.22;0.40;;;3.90;99.90;;;;;;5003918;28;20046;-74
2024/01/14 06:08:42;;;;;;;5.38;1.08;;;3.90;99.90;;;;;;4988977;28;20049;-74
2024/01/14 06:11:08;;;;;;;0.68;0.65;;;4.00;99.90;;;;;;5022451;28;20065;-74
2024/01/14 06:13:33;;;;;;;2.38;1.20;;;4.00;99.90;;;;;;5000985;28;20057;-74
2024/01/14 06:16:00;;;;;;;2.25;0.60;;;3.90;99.90;;;;;;5006387;28;20535;-74
2024/01/14 06:18:28;;;;;;;4.30;0.77;;;3.90;99.90;;;;;;4972980;28;20124;-74
2024/01/14 06:20:55;;;;;;;5.28;1.65;;;3.90;99.90;;;;;;5003588;28;20175;-74
2024/01/14 06:23:21;;;;;;;2.67;0.77;;;3.90;99.90;;;;;;5012919;28;20045;-75
2024/01/14 06:25:47;;;;;;;0.93;0.55;;;3.90;99.90;;;;;;4986012;28;20121;-74
2024/01/14 06:28:13;;;;;;;1.73;1.40;;;3.90;99.90;;;;;;5002792;28;20188;-74
2024/01/14 06:30:38;;;;;;;0.65;0.50;;;3.90;99.90;;;;;;5002982;28;20499;-74
2024/01/14 06:33:04;;;;;;;0.73;0.40;;;3.90;99.90;;;;;;5009060;28;20041;-74
2024/01/14 06:35:30;;;;;;;3.38;1.77;;;3.90;99.90;;;;;;4985890;28;20037;-74
2024/01/14 06:37:55;;;;;;;1.02;0.68;;;3.90;99.90;;;;;;5022592;28;20049;-74
2024/01/14 06:40:21;;;;;;;1.52;0.50;;;4.00;99.90;;;;;;5021917;28;20041;-75
2024/01/14 06:42:46;;;;;;;3.20;1.70;;;4.00;99.90;;;;;;5023224;28;20459;-74
2024/01/14 06:45:13;;;;;;;1.88;1.33;;;4.00;99.90;;;;;;5021008;28;20045;-74
2024/01/14 06:47:39;;;;;;;1.30;0.85;;;4.00;99.90;;;;;;5022268;28;20127;-74
2024/01/14 06:50:05;;;;;;;1.67;0.52;;;4.00;99.90;;;;;;5021365;28;20152;-74
2024/01/14 06:52:31;;;;;;;1.35;0.50;;;4.00;99.90;;;;;;5004766;28;20128;-74
2024/01/14 06:54:56;;;;;;;2.70;1.10;;;4.10;99.90;;;;;;5021593;28;20128;-74
2024/01/14 06:57:22;;;;;;;0.63;0.63;;;4.00;99.90;;;;;;5004799;28;20488;-74
2024/01/14 06:59:48;;;;;;;1.35;0.65;;;4.00;99.90;;;;;;5022106;28;20083;-74
2024/01/14 07:02:14;;;;;;;2.40;0.90;;;4.00;99.90;;;;;;5004232;28;20059;-74
2024/01/14 07:04:40;;;;;;;6.43;1.17;;;4.00;99.90;;;;;;5020733;28;20377;-74
2024/01/14 07:07:07;;;;;;;0.55;0.55;;;4.00;99.90;;;;;;5003972;28;20083;-75
2024/01/14 07:09:34;;;;;;;0.70;0.50;;;4.00;99.90;;;;;;5003858;28;20507;-74
2024/01/14 07:12:00;;;;;;;0.93;0.50;;;4.00;99.90;;;;;;5003084;28;20061;-74
2024/01/14 07:14:26;;;;;;;6.35;1.05;;;4.00;99.90;;;;;;5010599;28;20042;-74
2024/01/14 07:16:51;;;;;;;0.52;0.32;;;4.00;99.90;;;;;;5001930;28;20692;-74
2024/01/14 07:19:17;;;;;;;0.10;0.10;;;3.90;99.90;;;;;;5004175;28;20038;-74
2024/01/14 07:21:43;;;;;;;5.78;1.50;;;3.90;99.90;;;;;;5003308;28;20045;-74
2024/01/14 07:24:08;;;;;;;1.23;0.82;;;3.90;99.90;;;;;;5021267;28;20045;-74
2024/01/14 07:26:34;;;;;;;0.63;0.63;;;3.90;99.90;;;;;;5003779;28;20053;-74
2024/01/14 07:29:00;;;;;;;0.10;0.10;;;3.90;99.90;;;;;;5003596;28;20041;-74
2024/01/14 07:31:30;;;;;;;0.63;0.43;;;3.90;99.90;;;;;;5003771;28;20064;-74
2024/01/14 07:33:56;;;;;;;1.45;0.45;;;3.90;99.90;;;;;;5021255;28;20401;-74
2024/01/14 07:36:23;;;;;;;1.77;0.70;;;3.90;99.90;;;;;;5020510;28;20033;-74
2024/01/14 07:38:50;;;;;;;3.92;1.02;;;3.90;99.90;;;;;;5021896;28;20042;-74
2024/01/14 07:41:16;;;;;;;1.00;0.68;;;3.80;99.90;;;;;;5003739;28;20060;-74
2024/01/14 07:43:43;;;;;;;0.93;0.82;;;3.80;99.90;;;;;;5004124;28;20507;-74
2024/01/14 07:46:09;;;;;;;0.55;0.55;;;3.80;99.90;;;;;;5002539;28;20046;-74
2024/01/14 07:48:35;;;;;;;1.77;0.90;;;3.80;99.90;;;;;;5003831;28;20479;-74
2024/01/14 07:51:02;;;;;;;1.35;1.00;;;3.80;99.90;;;;;;5020218;28;20049;-74
2024/01/14 07:53:28;;;;;;;0.75;0.75;;;3.70;99.90;;;;;;5004075;28;20034;-74
2024/01/14 07:55:54;;;;;;;2.53;0.38;;;3.70;99.90;;;;;;5020722;28;20029;-74
2024/01/14 07:58:20;;;;;;;0.80;0.47;;;3.70;99.90;;;;;;4995573;28;20554;-74
2024/01/14 08:00:45;;;;;;;3.30;2.15;;;3.70;99.90;;;;;;5002881;28;20069;-74
2024/01/14 08:03:11;;;;;;;4.93;1.10;;;3.70;99.90;;;;;;5001614;28;20050;-74
2024/01/14 08:05:40;;;;;;;1.90;0.85;;;3.70;99.90;;;;;;4985286;28;20038;-74
2024/01/14 08:08:06;;;;;;;3.25;0.80;;;3.70;99.90;;;;;;5003678;28;20404;-74
2024/01/14 08:10:35;;;;;;;1.55;0.93;;;3.70;99.90;;;;;;4980984;28;20042;-74
2024/01/14 08:13:01;;;;;;;2.60;2.30;;;3.70;99.90;;;;;;4998337;28;20080;-74
2024/01/14 08:15:27;;;;;;;2.15;1.02;;;3.70;99.90;;;;;;4990557;28;20046;-74
2024/01/14 08:17:53;;;;;;;6.80;0.65;;;3.70;99.90;;;;;;4992115;28;20045;-75
2024/01/14 08:20:19;;;;;;;0.50;0.50;;;3.60;99.90;;;;;;4981703;28;20050;-74
2024/01/14 08:22:44;;;;;;;0.80;0.80;;;3.70;99.90;;;;;;4988388;28;20480;-74
2024/01/14 08:25:13;;;;;;;0.43;0.38;;;3.70;99.90;;;;;;5003451;28;20061;-74
2024/01/14 08:27:39;;;;;;;1.27;1.17;;;3.60;99.90;;;;;;5003408;28;20057;-74
2024/01/14 08:30:06;;;;;;;0.45;0.45;;;3.60;99.90;;;;;;5005360;28;20042;-74
2024/01/14 08:32:31;;;;;;;2.25;1.20;;;3.60;99.90;;;;;;5003697;28;20061;-74
2024/01/14 08:34:57;;;;;;;0.88;0.82;;;3.60;99.90;;;;;;5004261;28;20174;-74
2024/01/14 08:37:23;;;;;;;1.30;0.90;;;3.60;99.90;;;;;;5005048;28;20056;-74
2024/01/14 08:39:50;;;;;;;7.00;1.85;;;3.60;99.90;;;;;;5004005;28;20104;-74
2024/01/14 08:42:16;;;;;;;22.50;1.42;;;3.60;99.90;;;;;;5003327;28;20046;-74
2024/01/14 08:44:42;;;;;;;7.00;1.70;;;3.60;99.90;;;;;;5003512;28;20050;-74
2024/01/14 08:47:08;;;;;;;2.38;0.95;;;3.60;99.90;;;;;;5004394;28;20121;-74
2024/01/14 08:49:34;;;;;;;3.55;1.08;;;3.60;99.90;;;;;;5003011;28;20080;-74
2024/01/14 08:52:01;;;;;;;2.53;1.15;;;3.60;99.90;;;;;;5004199;28;20046;-74
2024/01/14 08:54:30;;;;;;;1.05;0.85;;;3.60;99.90;;;;;;5003890;28;20046;-76
2024/01/14 08:56:56;;;;;;;3.15;0.85;;;3.70;99.90;;;;;;5002975;28;20050;-74
2024/01/14 08:59:21;;;;;;;2.28;2.08;;;3.60;99.90;;;;;;5003625;28;20327;-75
2024/01/14 09:01:47;;;;;;;0.98;0.98;;;3.60;99.90;;;;;;5003496;28;20121;-74
2024/01/14 09:04:13;;;;;;;1.10;0.95;;;3.70;99.90;;;;;;5002968;28;20065;-74
2024/01/14 09:06:39;;;;;;;1.92;1.65;;;3.70;99.90;;;;;;5003197;28;20061;-74
2024/01/14 09:09:06;;;;;;;3.83;0.85;;;3.70;99.90;;;;;;5003901;28;20052;-74
2024/01/14 09:11:32;;;;;;;4.57;0.90;;;3.70;99.90;;;;;;5002777;28;20057;-75
2024/01/14 09:13:58;;;;;;;3.83;1.55;;;3.70;99.90;;;;;;5003267;28;20061;-74
2024/01/14 09:16:24;;;;;;;1.38;1.10;;;3.80;99.90;;;;;;4998892;28;20470;-74
2024/01/14 09:18:49;;;;;;;1.00;0.50;;;3.80;99.90;;;;;;4997388;28;20042;-74
2024/01/14 09:21:15;;;;;;;1.25;1.00;;;3.80;99.90;;;;;;5003723;28;20550;-74
2024/01/14 09:23:40;;;;;;;1.35;1.15;;;3.80;99.90;;;;;;5003191;28;20496;-74
2024/01/14 09:26:06;;;;;;;0.82;0.73;;;3.80;99.90;;;;;;5003713;28;20038;-74
2024/01/14 09:28:33;;;;;;;0.47;0.47;;;3.80;99.90;;;;;;5003178;28;20129;-74
2024/01/14 09:30:58;;;;;;;3.40;1.38;;;3.80;99.90;;;;;;5004007;28;20477;-74
2024/01/14 09:33:24;;;;;;;1.85;1.00;;;3.90;99.90;;;;;;5002617;28;20077;-74
2024/01/14 09:35:49;;;;;;;5.80;2.25;;;3.90;99.90;;;;;;5001879;28;20120;-75
2024/01/14 09:38:15;;;;;;;0.50;0.47;;;3.90;99.90;;;;;;4993590;28;20381;-75
2024/01/14 09:40:41;;;;;;;5.38;1.50;;;3.90;99.90;;;;;;4978469;28;20037;-74
2024/01/14 09:43:11;;;;;;;8.88;2.55;;;3.90;99.90;;;;;;4999343;28;20493;-74
2024/01/14 09:45:40;;;;;;;1.45;1.33;;;4.00;99.90;;;;;;4990433;28;20117;-75
2024/01/14 09:48:07;;;;;;;4.20;1.95;;;3.90;99.90;;;;;;4976498;28;20501;-75
2024/01/14 09:50:35;;;;;;;1.55;1.05;;;4.00;99.90;;;;;;4990455;28;20103;-74
2024/01/14 09:53:04;;;;;;;1.95;0.60;;;4.00;99.90;;;;;;4991798;28;20046;-74
2024/01/14 09:55:30;;;;;;;2.42;0.63;;;4.00;99.90;;;;;;4993450;28;20385;-75
2024/01/14 09:57:59;;;;;;;1.95;1.75;;;4.00;99.90;;;;;;4994010;28;20042;-76
2024/01/14 10:00:25;;;;;;;5.80;2.55;;;4.10;99.90;;;;;;5001335;28;20184;-75
2024/01/14 10:02:51;;;;;;;3.58;0.60;;;4.10;99.90;;;;;;5000737;28;20050;-75
2024/01/14 10:05:17;;;;;;;3.80;0.57;;;4.20;99.90;;;;;;4986169;28;20048;-75
2024/01/14 10:07:46;;;;;;;0.43;0.43;;;4.20;99.90;;;;;;5000876;28;20164;-75
2024/01/14 10:10:11;;;;;;;1.08;0.57;;;4.20;99.90;;;;;;4998738;28;20068;-74
2024/01/14 10:12:37;;;;;;;2.08;1.98;;;4.30;99.90;;;;;;5014545;28;20432;-75
2024/01/14 10:15:03;;;;;;;2.50;1.33;;;4.30;99.90;;;;;;5018468;28;20034;-75
2024/01/14 10:17:29;;;;;;;7.40;0.98;;;4.30;99.90;;;;;;4987591;28;20087;-75
2024/01/14 10:19:57;;;;;;;1.42;1.10;;;4.30;99.90;;;;;;4995640;28;20037;-75
2024/01/14 10:22:25;;;;;;;3.47;0.77;;;4.40;99.90;;;;;;5004143;28;20503;-77
2024/01/14 10:24:51;;;;;;;4.85;1.38;;;4.40;99.90;;;;;;5001045;28;20045;-76
2024/01/14 10:27:17;;;;;;;7.03;2.53;;;4.40;99.90;;;;;;5004593;28;20064;-74
2024/01/14 10:29:43;;;;;;;10.35;2.03;;;4.40;99.90;;;;;;5022421;28;20045;-74
2024/01/14 10:32:08;;;;;;;4.68;1.63;;;4.50;99.90;;;;;;5004630;28;20068;-74
2024/01/14 10:34:34;;;;;;;6.75;2.45;;;4.50;99.90;;;;;;5004337;28;20156;-74
2024/01/14 10:37:01;;;;;;;6.47;1.20;;;4.50;99.90;;;;;;5004936;28;20057;-74
2024/01/14 10:39:34;;;;;;;4.65;2.03;;;4.50;99.90;;;;;;5004980;28;20041;-75
2024/01/14 10:42:01;;;;;;;5.72;1.48;;;4.60;99.90;;;;;;4987799;28;20073;-76
2024/01/14 10:44:27;;;;;;;4.40;1.20;;;4.60;99.90;;;;;;5004466;28;20045;-76
2024/01/14 10:46:53;;;;;;;0.75;0.75;;;4.60;99.90;;;;;;5004001;28;20523;-76
2024/01/14 10:49:26;;;;;;;1.25;0.70;;;4.60;99.90;;;;;;5004534;28;20127;-76
2024/01/14 10:51:54;;;;;;;;;;;4.60;99.90;;;;;;5004687;28;20045;-76
2024/01/14 10:54:33;;;;;;;2.67;1.75;;;4.60;99.90;;;;;;4988852;28;20331;-75
2024/01/14 10:57:27;;;;;;;4.68;0.93;;;4.60;99.90;;;;;;5004373;28;20064;-75
2024/01/14 11:00:06;;;;;;;1.52;1.00;;;4.60;99.90;;;;;;5000904;28;20128;-75
2024/01/14 11:02:33;;;;;;;1.88;0.93;;;4.70;99.90;;;;;;5010476;28;20120;-73
2024/01/14 11:05:00;;;;;;;2.22;1.40;;;4.70;99.90;;;;;;4995753;28;20133;-71
2024/01/14 11:07:27;;;;;;;1.55;0.85;;;4.70;99.90;;;;;;5003433;28;20041;-74
2024/01/14 11:09:53;;;;;;;0.82;0.60;;;4.70;99.90;;;;;;5003225;28;20435;-74
2024/01/14 11:12:46;;;;;;;0.73;0.63;;;4.70;99.90;;;;;;5003407;28;20050;-73
2024/01/14 11:15:47;;;;;;;0.43;0.43;;;4.70;99.90;;;;;;4992455;28;20092;-73
2024/01/14 11:18:22;;;;;;;0.57;0.57;;;4.70;99.90;;;;;;5002601;28;20128;-72
2024/01/14 11:20:58;;;;;;;3.05;1.70;;;4.70;99.90;;;;;;5003951;28;20041;-72
2024/01/14 11:23:24;;;;;;;1.90;1.23;;;4.80;99.90;;;;;;5003888;28;20100;-73
2024/01/14 11:25:50;;;;;;;3.45;1.17;;;4.80;99.90;;;;;;5005884;28;20510;-76
2024/01/14 11:28:15;;;;;;;2.00;0.68;;;4.80;99.90;;;;;;5020883;28;20053;-72
2024/01/14 11:30:47;;;;;;;0.73;0.63;;;4.80;99.90;;;;;;5003757;28;20041;-73
2024/01/14 11:33:38;;;;;;;3.08;0.73;;;4.80;99.90;;;;;;5001217;28;20053;-72
2024/01/14 11:36:05;;;;;;;2.67;1.73;;;4.80;99.90;;;;;;4996635;28;20060;-74
2024/01/14 11:38:54;;;;;;;0.93;0.77;;;4.80;99.90;;;;;;5002329;28;20045;-74
2024/01/14 11:41:30;;;;;;;7.50;1.42;;;4.80;99.90;;;;;;5003691;28;20042;-76
2024/01/14 11:44:02;;;;;;;2.60;1.55;;;4.90;99.90;;;;;;5003327;28;20049;-73
2024/01/14 11:46:47;;;;;;;1.10;0.50;;;4.90;99.90;;;;;;4985431;28;20507;-74
2024/01/14 11:49:18;;;;;;;5.22;1.42;;;5.00;99.90;;;;;;5018869;28;20072;-77
2024/01/14 11:51:52;;;;;;;4.05;1.65;;;5.00;99.90;;;;;;5019891;28;20588;-76
2024/01/14 11:54:18;;;;;;;3.92;1.08;;;5.00;99.90;;;;;;5002469;28;20045;-77
2024/01/14 11:56:44;;;;;;;0.50;0.20;;;5.10;99.90;;;;;;5021284;28;20033;-77
2024/01/14 11:59:11;;;;;;;3.53;1.05;;;5.10;99.90;;;;;;4990607;28;20049;-77
2024/01/14 12:01:37;;;;;;;0.30;0.30;;;5.10;99.90;;;;;;5020297;28;20115;-77
2024/01/14 12:04:04;;;;;;;4.20;1.02;;;5.20;99.90;;;;;;5023147;28;20650;-77
2024/01/14 12:06:40;;;;;;;0.35;0.20;;;5.30;99.90;;;;;;5007480;28;20042;-77
2024/01/14 12:09:07;;;;;;;0.70;0.47;;;5.30;99.90;;;;;;5006815;28;20056;-77
2024/01/14 12:11:34;;;;;;;3.28;1.00;;;5.30;99.90;;;;;;5018894;28;20045;-77
2024/01/14 12:14:01;;;;;;;2.13;1.15;;;5.30;99.90;;;;;;5005543;28;20136;-77
2024/01/14 12:16:26;;;;;;;0.98;0.57;;;5.30;99.90;;;;;;5021640;28;20030;-77
2024/01/14 12:18:52;;;;;;;1.40;0.95;;;5.40;99.90;;;;;;5023028;28;20098;-77
2024/01/14 12:21:19;;;;;;;0.35;0.35;;;5.40;99.90;;;;;;5025510;28;20046;-79
2024/01/14 12:23:45;;;;;;;1.80;1.08;;;5.40;99.90;;;;;;5008393;28;20099;-77
2024/01/14 12:26:12;;;;;;;1.10;0.40;;;5.30;99.90;;;;;;5004855;28;20041;-76
2024/01/14 12:28:38;;;;;;;1.85;0.60;;;5.30;99.90;;;;;;4994003;28;20073;-75
2024/01/14 12:31:05;;;;;;;3.65;0.95;;;5.40;99.90;;;;;;5023713;28;20041;-74
2024/01/14 12:33:34;;;;;;;1.08;1.05;;;5.40;99.90;;;;;;5004293;28;20037;-75
2024/01/14 12:36:00;;;;;;;1.40;0.50;;;5.40;99.90;;;;;;5005211;28;20087;-75
2024/01/14 12:38:26;;;;;;;3.25;0.38;;;5.40;99.90;;;;;;4995699;28;20047;-74
2024/01/14 12:40:52;;;;;;;0.85;0.43;;;5.40;99.90;;;;;;4986092;28;20563;-75
2024/01/14 12:43:18;;;;;;;10.60;1.00;;;5.50;99.90;;;;;;4995443;28;20037;-75
2024/01/14 12:45:51;;;;;;;0.68;0.65;;;5.50;99.90;;;;;;5015262;28;20041;-76
2024/01/14 12:48:22;;;;;;;1.90;0.63;;;5.50;99.90;;;;;;4990473;28;20045;-75
2024/01/14 12:50:48;;;;;;;0.65;0.40;;;5.50;99.90;;;;;;4990248;28;20042;-75
2024/01/14 12:53:15;;;;;;;2.75;0.50;;;5.50;99.90;;;;;;5004231;28;20136;-75
2024/01/14 12:55:41;;;;;;;1.75;0.63;;;5.50;99.90;;;;;;5001685;28;20546;-79